sensor_id;sensor_type;location;lat;lon;timestamp;pressure;altitude;pressure_sealevel;temperature;humidity
20620;BME280;10469;42.720;23.252;2022-08-20T00:01:24;94473.41;;;24.90;100.00
20620;BME280;10469;42.720;23.252;2022-08-20T00:03:50;94460.91;;;24.81;100.00
20620;BME280;10469;42.720;23.252;2022-08-20T00:06:20;94457.84;;;24.82;100.00
20620;BME280;10469;42.720;23.252;2022-08-20T00:08:47;94461.00;;;24.72;100.00
20620;BME280;10469;42.720;23.252;2022-08-20T00:11:17;94477.31;;;24.68;100.00
20620;BME280;10469;42.720;23.252;2022-08-20T00:13:49;94482.69;;;24.44;100.00
20620;BME280;10469;42.720;23.252;2022-08-20T00:16:17;94480.56;;;24.20;100.00
20620;BME280;10469;42.720;23.252;2022-08-20T00:18:44;94472.84;;;24.13;100.00
20620;BME280;10469;42.720;23.252;2022-08-20T00:21:13;94476.06;;;24.15;100.00
20620;BME280;10469;42.720;23.252;2022-08-20T00:23:41;94478.63;;;23.91;100.00
20620;BME280;10469;42.720;23.252;2022-08-20T00:26:07;94475.28;;;23.85;100.00
20620;BME280;10469;42.720;23.252;2022-08-20T00:28:34;94475.09;;;23.90;100.00
20620;BME280;10469;42.720;23.252;2022-08-20T00:31:03;94475.31;;;23.76;100.00
20620;BME280;10469;42.720;23.252;2022-08-20T00:33:29;94465.38;;;23.63;100.00
20620;BME280;10469;42.720;23.252;2022-08-20T00:35:55;94474.09;;;23.48;100.00
20620;BME280;10469;42.720;23.252;2022-08-20T00:38:23;94482.00;;;23.49;100.00
20620;BME280;10469;42.720;23.252;2022-08-20T00:40:53;94482.31;;;23.48;100.00
20620;BME280;10469;42.720;23.252;2022-08-20T00:46:32;94478.41;;;23.19;100.00
20620;BME280;10469;42.720;23.252;2022-08-20T00:48:59;94466.97;;;23.17;100.00
20620;BME280;10469;42.720;23.252;2022-08-20T00:51:31;94471.78;;;23.20;100.00
20620;BME280;10469;42.720;23.252;2022-08-20T00:54:19;94478.25;;;23.16;100.00
20620;BME280;10469;42.720;23.252;2022-08-20T00:56:49;94458.97;;;23.03;100.00
20620;BME280;10469;42.720;23.252;2022-08-20T00:59:20;94451.44;;;22.66;100.00
20620;BME280;10469;42.720;23.252;2022-08-20T01:01:48;94463.50;;;22.56;100.00
20620;BME280;10469;42.720;23.252;2022-08-20T01:04:13;94456.59;;;22.67;100.00
20620;BME280;10469;42.720;23.252;2022-08-20T01:06:39;94453.34;;;22.65;100.00
20620;BME280;10469;42.720;23.252;2022-08-20T01:09:06;94449.47;;;22.84;100.00
20620;BME280;10469;42.720;23.252;2022-08-20T01:11:32;94449.16;;;22.85;100.00
20620;BME280;10469;42.720;23.252;2022-08-20T01:13:59;94442.91;;;22.76;100.00
20620;BME280;10469;42.720;23.252;2022-08-20T01:16:28;94447.25;;;22.68;100.00
20620;BME280;10469;42.720;23.252;2022-08-20T01:18:56;94450.00;;;22.60;100.00
20620;BME280;10469;42.720;23.252;2022-08-20T01:21:25;94451.25;;;22.62;100.00
20620;BME280;10469;42.720;23.252;2022-08-20T01:24:02;94446.31;;;22.29;100.00
20620;BME280;10469;42.720;23.252;2022-08-20T01:26:35;94449.84;;;22.56;100.00
20620;BME280;10469;42.720;23.252;2022-08-20T01:29:08;94446.63;;;22.71;100.00
20620;BME280;10469;42.720;23.252;2022-08-20T01:31:37;94439.69;;;22.65;100.00
20620;BME280;10469;42.720;23.252;2022-08-20T01:34:07;94440.97;;;22.76;100.00
20620;BME280;10469;42.720;23.252;2022-08-20T01:36:47;94436.31;;;22.77;100.00
20620;BME280;10469;42.720;23.252;2022-08-20T01:39:16;94437.44;;;22.76;100.00
20620;BME280;10469;42.720;23.252;2022-08-20T01:44:22;94407.53;;;22.62;100.00
20620;BME280;10469;42.720;23.252;2022-08-20T01:46:50;94426.66;;;22.79;100.00
20620;BME280;10469;42.720;23.252;2022-08-20T01:49:27;94433.06;;;22.84;100.00
20620;BME280;10469;42.720;23.252;2022-08-20T01:51:55;94439.38;;;22.84;100.00
20620;BME280;10469;42.720;23.252;2022-08-20T01:54:24;94443.72;;;22.76;100.00
20620;BME280;10469;42.720;23.252;2022-08-20T01:57:18;94426.38;;;22.55;100.00
20620;BME280;10469;42.720;23.252;2022-08-20T01:59:44;94437.63;;;22.27;100.00
20620;BME280;10469;42.720;23.252;2022-08-20T02:02:11;94441.81;;;22.34;100.00
20620;BME280;10469;42.720;23.252;2022-08-20T02:04:37;94440.84;;;22.21;100.00
20620;BME280;10469;42.720;23.252;2022-08-20T02:07:04;94437.72;;;22.05;100.00
20620;BME280;10469;42.720;23.252;2022-08-20T02:09:36;94437.53;;;21.93;100.00
20620;BME280;10469;42.720;23.252;2022-08-20T02:12:06;94433.81;;;21.80;100.00
20620;BME280;10469;42.720;23.252;2022-08-20T02:14:33;94418.91;;;21.77;100.00
20620;BME280;10469;42.720;23.252;2022-08-20T02:16:59;94436.56;;;21.89;100.00
20620;BME280;10469;42.720;23.252;2022-08-20T02:19:32;94429.53;;;21.96;100.00
20620;BME280;10469;42.720;23.252;2022-08-20T02:22:03;94435.31;;;21.95;100.00
20620;BME280;10469;42.720;23.252;2022-08-20T02:24:32;94426.78;;;21.79;100.00
20620;BME280;10469;42.720;23.252;2022-08-20T02:26:58;94428.66;;;21.61;100.00
20620;BME280;10469;42.720;23.252;2022-08-20T02:29:24;94433.94;;;21.58;100.00
20620;BME280;10469;42.720;23.252;2022-08-20T02:31:50;94428.50;;;21.66;100.00
20620;BME280;10469;42.720;23.252;2022-08-20T02:34:16;94427.38;;;21.67;100.00
20620;BME280;10469;42.720;23.252;2022-08-20T02:36:42;94438.63;;;21.74;100.00
20620;BME280;10469;42.720;23.252;2022-08-20T02:39:10;94438.16;;;21.72;100.00
20620;BME280;10469;42.720;23.252;2022-08-20T02:41:37;94433.34;;;21.69;100.00
20620;BME280;10469;42.720;23.252;2022-08-20T02:44:04;94438.63;;;21.66;100.00
20620;BME280;10469;42.720;23.252;2022-08-20T02:46:31;94434.78;;;21.75;100.00
20620;BME280;10469;42.720;23.252;2022-08-20T02:48:57;94444.72;;;21.71;100.00
20620;BME280;10469;42.720;23.252;2022-08-20T02:51:23;94448.44;;;21.75;100.00
20620;BME280;10469;42.720;23.252;2022-08-20T02:53:51;94447.97;;;21.73;100.00
20620;BME280;10469;42.720;23.252;2022-08-20T02:56:17;94446.94;;;21.61;100.00
20620;BME280;10469;42.720;23.252;2022-08-20T02:58:43;94447.31;;;21.68;100.00
20620;BME280;10469;42.720;23.252;2022-08-20T03:01:12;94453.03;;;21.58;100.00
20620;BME280;10469;42.720;23.252;2022-08-20T03:03:39;94441.50;;;21.61;100.00
20620;BME280;10469;42.720;23.252;2022-08-20T03:06:05;94447.88;;;21.47;100.00
20620;BME280;10469;42.720;23.252;2022-08-20T03:08:31;94447.34;;;21.37;100.00
20620;BME280;10469;42.720;23.252;2022-08-20T03:10:56;94441.72;;;21.33;100.00
20620;BME280;10469;42.720;23.252;2022-08-20T03:13:22;94443.94;;;21.31;100.00
20620;BME280;10469;42.720;23.252;2022-08-20T03:15:54;94453.44;;;21.34;100.00
20620;BME280;10469;42.720;23.252;2022-08-20T03:18:21;94445.84;;;21.30;100.00
20620;BME280;10469;42.720;23.252;2022-08-20T03:20:47;94441.53;;;21.29;100.00
20620;BME280;10469;42.720;23.252;2022-08-20T03:23:14;94438.94;;;21.24;100.00
20620;BME280;10469;42.720;23.252;2022-08-20T03:25:40;94439.09;;;21.28;100.00
20620;BME280;10469;42.720;23.252;2022-08-20T03:28:06;94441.53;;;21.29;100.00
20620;BME280;10469;42.720;23.252;2022-08-20T03:30:32;94452.38;;;21.21;100.00
20620;BME280;10469;42.720;23.252;2022-08-20T03:32:59;94451.09;;;21.18;100.00
20620;BME280;10469;42.720;23.252;2022-08-20T03:35:26;94454.19;;;21.25;100.00
20620;BME280;10469;42.720;23.252;2022-08-20T03:37:52;94451.25;;;21.22;100.00
20620;BME280;10469;42.720;23.252;2022-08-20T03:40:22;94437.06;;;21.34;100.00
20620;BME280;10469;42.720;23.252;2022-08-20T03:42:47;94446.97;;;21.29;100.00
20620;BME280;10469;42.720;23.252;2022-08-20T03:45:13;94459.81;;;21.29;100.00
20620;BME280;10469;42.720;23.252;2022-08-20T03:47:39;94463.16;;;21.26;100.00
20620;BME280;10469;42.720;23.252;2022-08-20T03:50:08;94462.56;;;21.07;100.00
20620;BME280;10469;42.720;23.252;2022-08-20T03:52:35;94472.75;;;21.23;100.00
20620;BME280;10469;42.720;23.252;2022-08-20T03:55:01;94468.78;;;20.98;100.00
20620;BME280;10469;42.720;23.252;2022-08-20T03:57:26;94476.84;;;21.03;100.00
20620;BME280;10469;42.720;23.252;2022-08-20T03:59:53;94476.06;;;21.34;100.00
20620;BME280;10469;42.720;23.252;2022-08-20T04:02:18;94477.03;;;21.38;100.00
20620;BME280;10469;42.720;23.252;2022-08-20T04:04:44;94472.28;;;21.21;100.00
20620;BME280;10469;42.720;23.252;2022-08-20T04:07:14;94473.00;;;21.36;100.00
20620;BME280;10469;42.720;23.252;2022-08-20T04:09:39;94466.34;;;21.28;100.00
20620;BME280;10469;42.720;23.252;2022-08-20T04:12:06;94464.69;;;21.41;100.00
20620;BME280;10469;42.720;23.252;2022-08-20T04:14:32;94474.41;;;21.64;100.00
20620;BME280;10469;42.720;23.252;2022-08-20T04:17:04;94468.03;;;21.77;100.00
20620;BME280;10469;42.720;23.252;2022-08-20T04:19:29;94478.47;;;21.84;100.00
20620;BME280;10469;42.720;23.252;2022-08-20T04:21:55;94479.19;;;22.07;100.00
20620;BME280;10469;42.720;23.252;2022-08-20T04:24:20;94477.34;;;21.76;100.00
20620;BME280;10469;42.720;23.252;2022-08-20T04:26:46;94480.75;;;21.91;100.00
20620;BME280;10469;42.720;23.252;2022-08-20T04:29:12;94457.41;;;22.24;100.00
20620;BME280;10469;42.720;23.252;2022-08-20T04:31:37;94469.59;;;22.36;100.00
20620;BME280;10469;42.720;23.252;2022-08-20T04:34:04;94477.31;;;22.60;100.00
20620;BME280;10469;42.720;23.252;2022-08-20T04:36:32;94479.72;;;22.61;100.00
20620;BME280;10469;42.720;23.252;2022-08-20T04:38:59;94470.22;;;22.85;100.00
20620;BME280;10469;42.720;23.252;2022-08-20T04:41:26;94476.50;;;22.76;100.00
20620;BME280;10469;42.720;23.252;2022-08-20T04:43:52;94476.53;;;22.94;100.00
20620;BME280;10469;42.720;23.252;2022-08-20T04:46:19;94487.25;;;23.16;100.00
20620;BME280;10469;42.720;23.252;2022-08-20T04:48:45;94472.22;;;23.31;100.00
20620;BME280;10469;42.720;23.252;2022-08-20T04:51:11;94469.13;;;23.50;100.00
20620;BME280;10469;42.720;23.252;2022-08-20T04:53:39;94469.84;;;23.76;100.00
20620;BME280;10469;42.720;23.252;2022-08-20T04:56:05;94466.84;;;23.52;100.00
20620;BME280;10469;42.720;23.252;2022-08-20T04:58:37;94471.63;;;23.72;100.00
20620;BME280;10469;42.720;23.252;2022-08-20T05:01:10;94472.53;;;23.85;100.00
20620;BME280;10469;42.720;23.252;2022-08-20T05:03:37;94472.53;;;24.15;100.00
20620;BME280;10469;42.720;23.252;2022-08-20T05:06:05;94479.75;;;23.90;100.00
20620;BME280;10469;42.720;23.252;2022-08-20T05:08:32;94473.53;;;24.10;100.00
20620;BME280;10469;42.720;23.252;2022-08-20T05:10:58;94471.19;;;24.21;100.00
20620;BME280;10469;42.720;23.252;2022-08-20T05:13:25;94476.41;;;24.35;100.00
20620;BME280;10469;42.720;23.252;2022-08-20T05:15:51;94474.91;;;24.67;100.00
20620;BME280;10469;42.720;23.252;2022-08-20T05:18:20;94479.88;;;24.52;100.00
20620;BME280;10469;42.720;23.252;2022-08-20T05:20:47;94474.78;;;24.63;100.00
20620;BME280;10469;42.720;23.252;2022-08-20T05:23:14;94477.69;;;25.00;100.00
20620;BME280;10469;42.720;23.252;2022-08-20T05:25:41;94473.53;;;24.94;100.00
20620;BME280;10469;42.720;23.252;2022-08-20T05:28:11;94475.19;;;25.07;100.00
20620;BME280;10469;42.720;23.252;2022-08-20T05:30:39;94477.00;;;25.03;100.00
20620;BME280;10469;42.720;23.252;2022-08-20T05:33:06;94481.09;;;24.97;100.00
20620;BME280;10469;42.720;23.252;2022-08-20T05:35:35;94471.66;;;25.07;100.00
20620;BME280;10469;42.720;23.252;2022-08-20T05:38:03;94460.22;;;25.50;100.00
20620;BME280;10469;42.720;23.252;2022-08-20T05:40:29;94460.06;;;25.22;100.00
20620;BME280;10469;42.720;23.252;2022-08-20T05:42:55;94458.22;;;25.96;100.00
20620;BME280;10469;42.720;23.252;2022-08-20T05:45:20;94461.16;;;26.27;100.00
20620;BME280;10469;42.720;23.252;2022-08-20T05:47:46;94467.88;;;26.42;100.00
20620;BME280;10469;42.720;23.252;2022-08-20T05:50:13;94479.25;;;27.21;100.00
20620;BME280;10469;42.720;23.252;2022-08-20T05:52:40;94468.31;;;28.16;98.92
20620;BME280;10469;42.720;23.252;2022-08-20T05:55:09;94469.19;;;27.89;98.30
20620;BME280;10469;42.720;23.252;2022-08-20T05:57:35;94453.84;;;27.28;100.00
20620;BME280;10469;42.720;23.252;2022-08-20T06:00:05;94450.50;;;28.65;94.70
20620;BME280;10469;42.720;23.252;2022-08-20T06:02:31;94446.44;;;27.60;100.00
20620;BME280;10469;42.720;23.252;2022-08-20T06:05:15;94458.72;;;27.94;98.36
20620;BME280;10469;42.720;23.252;2022-08-20T06:07:44;94452.28;;;27.59;100.00
20620;BME280;10469;42.720;23.252;2022-08-20T06:10:14;94458.63;;;27.59;100.00
20620;BME280;10469;42.720;23.252;2022-08-20T06:12:40;94456.47;;;28.16;100.00
20620;BME280;10469;42.720;23.252;2022-08-20T06:15:07;94455.97;;;29.00;94.51
20620;BME280;10469;42.720;23.252;2022-08-20T06:17:34;94458.88;;;28.53;97.53
20620;BME280;10469;42.720;23.252;2022-08-20T06:20:03;94457.09;;;29.38;90.76
20620;BME280;10469;42.720;23.252;2022-08-20T06:22:30;94458.94;;;29.53;88.64
20620;BME280;10469;42.720;23.252;2022-08-20T06:24:56;94456.41;;;29.02;92.52
20620;BME280;10469;42.720;23.252;2022-08-20T06:27:22;94458.28;;;28.27;94.49
20620;BME280;10469;42.720;23.252;2022-08-20T06:29:48;94459.78;;;28.57;94.41
20620;BME280;10469;42.720;23.252;2022-08-20T06:32:14;94446.44;;;28.59;95.11
20620;BME280;10469;42.720;23.252;2022-08-20T06:34:40;94451.38;;;31.36;78.25
20620;BME280;10469;42.720;23.252;2022-08-20T06:37:20;94451.94;;;30.05;81.98
20620;BME280;10469;42.720;23.252;2022-08-20T06:39:46;94440.59;;;30.10;85.22
20620;BME280;10469;42.720;23.252;2022-08-20T06:42:12;94441.28;;;30.87;77.96
20620;BME280;10469;42.720;23.252;2022-08-20T06:44:38;94439.81;;;32.08;73.61
20620;BME280;10469;42.720;23.252;2022-08-20T06:47:04;94429.09;;;32.65;64.12
20620;BME280;10469;42.720;23.252;2022-08-20T06:49:33;94434.84;;;31.84;68.75
20620;BME280;10469;42.720;23.252;2022-08-20T06:51:58;94440.69;;;31.01;73.11
20620;BME280;10469;42.720;23.252;2022-08-20T06:54:24;94426.22;;;33.42;61.97
20620;BME280;10469;42.720;23.252;2022-08-20T06:56:49;94435.47;;;34.07;57.64
20620;BME280;10469;42.720;23.252;2022-08-20T06:59:19;94436.66;;;34.24;56.23
20620;BME280;10469;42.720;23.252;2022-08-20T07:01:44;94427.88;;;33.57;57.44
20620;BME280;10469;42.720;23.252;2022-08-20T07:04:10;94429.91;;;33.96;56.76
20620;BME280;10469;42.720;23.252;2022-08-20T07:06:35;94421.38;;;34.96;54.04
20620;BME280;10469;42.720;23.252;2022-08-20T07:09:01;94415.84;;;35.00;53.09
20620;BME280;10469;42.720;23.252;2022-08-20T07:11:27;94420.97;;;35.82;50.52
20620;BME280;10469;42.720;23.252;2022-08-20T07:13:52;94417.59;;;36.08;48.70
20620;BME280;10469;42.720;23.252;2022-08-20T07:16:18;94418.06;;;36.00;46.93
20620;BME280;10469;42.720;23.252;2022-08-20T07:18:43;94409.81;;;35.15;48.97
20620;BME280;10469;42.720;23.252;2022-08-20T07:21:09;94404.38;;;34.65;50.75
20620;BME280;10469;42.720;23.252;2022-08-20T07:23:36;94412.00;;;33.93;55.39
20620;BME280;10469;42.720;23.252;2022-08-20T07:26:02;94409.19;;;33.72;56.36
20620;BME280;10469;42.720;23.252;2022-08-20T07:28:28;94405.47;;;35.04;51.99
20620;BME280;10469;42.720;23.252;2022-08-20T07:30:56;94414.03;;;35.41;49.32
20620;BME280;10469;42.720;23.252;2022-08-20T07:33:40;94413.38;;;36.31;47.42
20620;BME280;10469;42.720;23.252;2022-08-20T07:36:07;94399.06;;;37.04;46.09
20620;BME280;10469;42.720;23.252;2022-08-20T07:38:33;94401.97;;;37.28;44.05
20620;BME280;10469;42.720;23.252;2022-08-20T07:41:05;94400.84;;;38.53;41.60
20620;BME280;10469;42.720;23.252;2022-08-20T07:43:36;94396.59;;;38.45;40.34
20620;BME280;10469;42.720;23.252;2022-08-20T07:46:03;94397.44;;;38.19;40.99
20620;BME280;10469;42.720;23.252;2022-08-20T07:48:35;94396.19;;;37.69;40.74
20620;BME280;10469;42.720;23.252;2022-08-20T07:51:03;94400.00;;;37.55;41.64
20620;BME280;10469;42.720;23.252;2022-08-20T07:53:33;94410.31;;;37.31;41.01
20620;BME280;10469;42.720;23.252;2022-08-20T07:56:01;94399.56;;;38.11;41.02
20620;BME280;10469;42.720;23.252;2022-08-20T07:58:27;94402.25;;;37.06;42.08
20620;BME280;10469;42.720;23.252;2022-08-20T08:00:54;94399.31;;;37.48;41.28
20620;BME280;10469;42.720;23.252;2022-08-20T08:03:19;94403.63;;;36.87;42.48
20620;BME280;10469;42.720;23.252;2022-08-20T08:05:47;94395.13;;;37.32;41.53
20620;BME280;10469;42.720;23.252;2022-08-20T08:08:19;94397.38;;;38.89;38.70
20620;BME280;10469;42.720;23.252;2022-08-20T08:10:48;94395.91;;;38.14;39.41
20620;BME280;10469;42.720;23.252;2022-08-20T08:13:15;94396.09;;;37.49;40.30
20620;BME280;10469;42.720;23.252;2022-08-20T08:15:46;94386.03;;;37.25;40.99
20620;BME280;10469;42.720;23.252;2022-08-20T08:18:20;94387.56;;;39.37;38.39
20620;BME280;10469;42.720;23.252;2022-08-20T08:20:49;94388.09;;;39.32;37.82
20620;BME280;10469;42.720;23.252;2022-08-20T08:23:21;94376.00;;;38.08;39.91
20620;BME280;10469;42.720;23.252;2022-08-20T08:25:48;94391.47;;;36.29;43.38
20620;BME280;10469;42.720;23.252;2022-08-20T08:28:16;94376.41;;;37.26;41.39
20620;BME280;10469;42.720;23.252;2022-08-20T08:30:43;94379.78;;;38.45;39.55
20620;BME280;10469;42.720;23.252;2022-08-20T08:33:29;94371.97;;;38.56;39.21
20620;BME280;10469;42.720;23.252;2022-08-20T08:36:06;94374.47;;;38.51;38.46
20620;BME280;10469;42.720;23.252;2022-08-20T08:38:35;94368.13;;;39.10;38.41
20620;BME280;10469;42.720;23.252;2022-08-20T08:43:44;94378.81;;;36.17;42.17
20620;BME280;10469;42.720;23.252;2022-08-20T08:46:11;94374.78;;;35.77;43.49
20620;BME280;10469;42.720;23.252;2022-08-20T08:48:44;94356.97;;;37.73;40.29
20620;BME280;10469;42.720;23.252;2022-08-20T08:51:14;94360.91;;;37.52;40.07
20620;BME280;10469;42.720;23.252;2022-08-20T08:53:44;94350.28;;;37.94;39.82
20620;BME280;10469;42.720;23.252;2022-08-20T08:56:13;94349.53;;;37.05;42.43
20620;BME280;10469;42.720;23.252;2022-08-20T08:58:40;94349.25;;;37.80;40.70
20620;BME280;10469;42.720;23.252;2022-08-20T09:01:11;94347.09;;;37.64;41.44
20620;BME280;10469;42.720;23.252;2022-08-20T09:03:39;94353.63;;;39.51;37.48
20620;BME280;10469;42.720;23.252;2022-08-20T09:06:12;94338.78;;;39.14;36.69
20620;BME280;10469;42.720;23.252;2022-08-20T09:11:09;94335.06;;;39.01;36.43
20620;BME280;10469;42.720;23.252;2022-08-20T09:13:36;94336.31;;;37.66;38.99
20620;BME280;10469;42.720;23.252;2022-08-20T09:16:02;94339.94;;;38.77;37.18
20620;BME280;10469;42.720;23.252;2022-08-20T09:18:27;94345.44;;;39.21;37.63
20620;BME280;10469;42.720;23.252;2022-08-20T09:20:54;94344.44;;;39.67;35.40
20620;BME280;10469;42.720;23.252;2022-08-20T09:23:20;94348.88;;;40.46;34.73
20620;BME280;10469;42.720;23.252;2022-08-20T09:25:46;94342.25;;;39.75;34.59
20620;BME280;10469;42.720;23.252;2022-08-20T09:28:14;94335.75;;;40.72;33.74
20620;BME280;10469;42.720;23.252;2022-08-20T09:30:41;94324.38;;;40.76;33.30
20620;BME280;10469;42.720;23.252;2022-08-20T09:33:07;94322.47;;;36.30;40.40
20620;BME280;10469;42.720;23.252;2022-08-20T09:35:33;94323.88;;;37.44;39.59
20620;BME280;10469;42.720;23.252;2022-08-20T09:38:01;94314.25;;;37.45;39.47
20620;BME280;10469;42.720;23.252;2022-08-20T09:40:26;94315.91;;;39.52;35.51
20620;BME280;10469;42.720;23.252;2022-08-20T09:42:52;94313.03;;;40.05;35.28
20620;BME280;10469;42.720;23.252;2022-08-20T09:45:18;94316.50;;;38.68;36.21
20620;BME280;10469;42.720;23.252;2022-08-20T09:47:44;94311.19;;;38.53;36.97
20620;BME280;10469;42.720;23.252;2022-08-20T09:50:10;94322.00;;;37.88;37.19
20620;BME280;10469;42.720;23.252;2022-08-20T09:52:40;94321.56;;;38.96;35.79
20620;BME280;10469;42.720;23.252;2022-08-20T09:55:21;94317.44;;;39.73;34.95
20620;BME280;10469;42.720;23.252;2022-08-20T09:57:49;94301.06;;;40.62;33.18
20620;BME280;10469;42.720;23.252;2022-08-20T10:00:16;94310.34;;;37.66;36.75
20620;BME280;10469;42.720;23.252;2022-08-20T10:02:43;94311.53;;;37.11;38.07
20620;BME280;10469;42.720;23.252;2022-08-20T10:05:11;94322.00;;;40.45;33.38
20620;BME280;10469;42.720;23.252;2022-08-20T10:07:38;94317.06;;;42.79;29.99
20620;BME280;10469;42.720;23.252;2022-08-20T10:10:06;94315.13;;;39.68;33.08
20620;BME280;10469;42.720;23.252;2022-08-20T10:12:32;94298.72;;;39.34;34.07
20620;BME280;10469;42.720;23.252;2022-08-20T10:14:58;94295.69;;;41.23;31.02
20620;BME280;10469;42.720;23.252;2022-08-20T10:17:23;94310.69;;;39.87;32.54
20620;BME280;10469;42.720;23.252;2022-08-20T10:19:49;94305.13;;;40.45;31.21
20620;BME280;10469;42.720;23.252;2022-08-20T10:22:14;94304.06;;;43.03;28.73
20620;BME280;10469;42.720;23.252;2022-08-20T10:24:40;94301.44;;;41.32;29.50
20620;BME280;10469;42.720;23.252;2022-08-20T10:27:05;94279.56;;;40.98;29.82
20620;BME280;10469;42.720;23.252;2022-08-20T10:29:31;94292.09;;;38.48;32.89
20620;BME280;10469;42.720;23.252;2022-08-20T10:32:10;94288.22;;;38.62;33.60
20620;BME280;10469;42.720;23.252;2022-08-20T10:34:40;94274.28;;;38.78;33.93
20620;BME280;10469;42.720;23.252;2022-08-20T10:37:06;94290.03;;;38.29;33.64
20620;BME280;10469;42.720;23.252;2022-08-20T10:39:31;94283.97;;;36.82;36.00
20620;BME280;10469;42.720;23.252;2022-08-20T10:41:57;94280.81;;;37.85;34.64
20620;BME280;10469;42.720;23.252;2022-08-20T10:44:22;94278.94;;;37.28;35.22
20620;BME280;10469;42.720;23.252;2022-08-20T10:46:48;94273.97;;;37.89;33.88
20620;BME280;10469;42.720;23.252;2022-08-20T10:49:13;94268.97;;;37.77;33.95
20620;BME280;10469;42.720;23.252;2022-08-20T10:51:39;94276.59;;;37.53;34.44
20620;BME280;10469;42.720;23.252;2022-08-20T10:54:04;94251.19;;;38.11;33.59
20620;BME280;10469;42.720;23.252;2022-08-20T10:56:30;94273.94;;;37.42;35.00
20620;BME280;10469;42.720;23.252;2022-08-20T10:58:55;94256.97;;;36.38;36.91
20620;BME280;10469;42.720;23.252;2022-08-20T11:01:21;94262.03;;;36.81;35.98
20620;BME280;10469;42.720;23.252;2022-08-20T11:03:46;94266.28;;;36.28;37.40
20620;BME280;10469;42.720;23.252;2022-08-20T11:06:12;94270.56;;;35.57;38.79
20620;BME280;10469;42.720;23.252;2022-08-20T11:08:37;94257.25;;;36.81;37.53
20620;BME280;10469;42.720;23.252;2022-08-20T11:11:04;94262.13;;;36.05;38.17
20620;BME280;10469;42.720;23.252;2022-08-20T11:13:31;94261.31;;;37.58;36.51
20620;BME280;10469;42.720;23.252;2022-08-20T11:15:57;94246.50;;;36.15;37.57
20620;BME280;10469;42.720;23.252;2022-08-20T11:18:22;94244.00;;;34.79;40.02
20620;BME280;10469;42.720;23.252;2022-08-20T11:20:48;94233.13;;;34.29;41.85
20620;BME280;10469;42.720;23.252;2022-08-20T11:23:13;94216.88;;;34.16;41.94
20620;BME280;10469;42.720;23.252;2022-08-20T11:25:38;94244.25;;;34.22;43.19
20620;BME280;10469;42.720;23.252;2022-08-20T11:28:04;94230.56;;;35.71;40.30
20620;BME280;10469;42.720;23.252;2022-08-20T11:30:33;94231.25;;;36.57;38.55
20620;BME280;10469;42.720;23.252;2022-08-20T11:32:59;94222.03;;;35.43;40.33
20620;BME280;10469;42.720;23.252;2022-08-20T11:35:26;94212.88;;;35.47;40.39
20620;BME280;10469;42.720;23.252;2022-08-20T11:37:55;94203.03;;;35.31;41.13
20620;BME280;10469;42.720;23.252;2022-08-20T11:40:22;94215.66;;;35.50;39.88
20620;BME280;10469;42.720;23.252;2022-08-20T11:42:47;94201.75;;;36.53;38.94
20620;BME280;10469;42.720;23.252;2022-08-20T11:45:14;94194.44;;;35.15;39.63
20620;BME280;10469;42.720;23.252;2022-08-20T11:47:40;94200.13;;;34.97;41.06
20620;BME280;10469;42.720;23.252;2022-08-20T11:50:09;94203.63;;;35.57;40.16
20620;BME280;10469;42.720;23.252;2022-08-20T11:52:36;94194.31;;;35.71;39.39
20620;BME280;10469;42.720;23.252;2022-08-20T11:55:02;94193.25;;;35.12;40.83
20620;BME280;10469;42.720;23.252;2022-08-20T11:57:30;94201.59;;;36.02;38.66
20620;BME280;10469;42.720;23.252;2022-08-20T12:00:03;94218.56;;;34.77;40.21
20620;BME280;10469;42.720;23.252;2022-08-20T12:02:29;94206.00;;;34.51;41.58
20620;BME280;10469;42.720;23.252;2022-08-20T12:04:55;94211.59;;;34.36;41.52
20620;BME280;10469;42.720;23.252;2022-08-20T12:07:22;94214.97;;;33.67;43.98
20620;BME280;10469;42.720;23.252;2022-08-20T12:09:48;94202.66;;;33.79;42.62
20620;BME280;10469;42.720;23.252;2022-08-20T12:12:15;94203.91;;;33.35;43.58
20620;BME280;10469;42.720;23.252;2022-08-20T12:14:41;94216.59;;;33.07;44.70
20620;BME280;10469;42.720;23.252;2022-08-20T12:17:18;94212.53;;;32.47;45.75
20620;BME280;10469;42.720;23.252;2022-08-20T12:19:47;94234.09;;;31.99;47.40
20620;BME280;10469;42.720;23.252;2022-08-20T12:22:14;94236.06;;;31.88;48.29
20620;BME280;10469;42.720;23.252;2022-08-20T12:24:39;94227.63;;;31.77;48.76
20620;BME280;10469;42.720;23.252;2022-08-20T12:27:22;94214.22;;;31.83;49.34
20620;BME280;10469;42.720;23.252;2022-08-20T12:29:50;94230.09;;;31.89;48.66
20620;BME280;10469;42.720;23.252;2022-08-20T12:32:18;94225.03;;;32.02;48.59
20620;BME280;10469;42.720;23.252;2022-08-20T12:34:44;94211.00;;;31.77;49.14
20620;BME280;10469;42.720;23.252;2022-08-20T12:37:13;94224.84;;;31.70;49.38
20620;BME280;10469;42.720;23.252;2022-08-20T12:39:41;94209.16;;;31.95;49.29
20620;BME280;10469;42.720;23.252;2022-08-20T12:42:07;94221.06;;;32.07;49.54
20620;BME280;10469;42.720;23.252;2022-08-20T12:44:34;94217.94;;;32.08;49.56
20620;BME280;10469;42.720;23.252;2022-08-20T12:49:31;94223.09;;;31.44;52.63
20620;BME280;10469;42.720;23.252;2022-08-20T12:51:56;94201.75;;;30.96;52.58
20620;BME280;10469;42.720;23.252;2022-08-20T12:54:22;94218.91;;;31.16;52.78
20620;BME280;10469;42.720;23.252;2022-08-20T12:56:47;94218.88;;;31.13;54.45
20620;BME280;10469;42.720;23.252;2022-08-20T12:59:13;94217.53;;;30.92;55.35
20620;BME280;10469;42.720;23.252;2022-08-20T13:01:38;94217.16;;;30.19;69.95